Selman City, Texas
Current Conditions -  °F | °C
As of 5:15 AM on Sunday 23 Nov 2014 (Local Time) from KRFI Reporting Station
Light Rain Light Rain  
Wind Chill: 61°   Ceiling: 700
Heat Index: 61°   Visibility: 10mi
Dew Point: 61°   Wind: 7mph
Humidity: 100%   Direction: 120°ESE
Pressure: 29.59"   Gusts: NA
Location:  32.19°N, 94.96°W
Report Text: KRFI 231115Z AUTO 12006KT 10SM -RA BKN007 BKN029 OVC055 16/16 A2959 RMK AO2 T01610161
Loading
Personal Weather Stations






























Interactive Weather Map New forecast layout! Learn more

10-Day Weather Forecast

Advertisements
Track Severe Weather on mobile